createdAt,value
2018-12-05T00:00:40.004Z,1019.58
2018-12-05T00:01:39.998Z,1019.56
2018-12-05T00:02:39.983Z,1019.55
2018-12-05T00:03:39.973Z,1019.53
2018-12-05T00:04:40.002Z,1019.54
2018-12-05T00:05:39.954Z,1019.58
2018-12-05T00:06:39.941Z,1019.56
2018-12-05T00:07:39.931Z,1019.57
2018-12-05T00:08:39.918Z,1019.58
2018-12-05T00:09:39.908Z,1019.56
2018-12-05T00:10:39.940Z,1019.58
2018-12-05T00:11:39.890Z,1019.58
2018-12-05T00:12:39.876Z,1019.56
2018-12-05T00:13:39.867Z,1019.54
2018-12-05T00:14:39.854Z,1019.44
2018-12-05T00:15:39.944Z,1019.47
2018-12-05T00:16:39.872Z,1019.40
2018-12-05T00:17:39.873Z,1019.40
2018-12-05T00:18:39.811Z,1019.39
2018-12-05T00:19:39.801Z,1019.36
2018-12-05T00:20:39.792Z,1019.32
2018-12-05T00:21:39.779Z,1019.35
2018-12-05T00:22:39.769Z,1019.29
2018-12-05T00:23:39.797Z,1019.28
2018-12-05T00:24:39.747Z,1019.28
2018-12-05T00:25:39.736Z,1019.27
2018-12-05T00:26:39.730Z,1019.24
2018-12-05T00:27:39.756Z,1019.25
2018-12-05T00:28:39.706Z,1019.22
2018-12-05T00:29:39.733Z,1019.19
2018-12-05T00:30:39.719Z,1019.22
2018-12-05T00:31:39.670Z,1019.16
2018-12-05T00:32:39.661Z,1019.17
2018-12-05T00:33:39.662Z,1019.19
2018-12-05T00:34:39.644Z,1019.25
2018-12-05T00:35:39.672Z,1019.23
2018-12-05T00:36:39.615Z,1019.20
2018-12-05T00:37:39.648Z,1019.21
2018-12-05T00:38:39.596Z,1019.25
2018-12-05T00:39:39.585Z,1019.24
2018-12-05T00:40:39.575Z,1019.24
2018-12-05T00:41:39.566Z,1019.23
2018-12-05T00:42:39.553Z,1019.24
2018-12-05T00:43:39.582Z,1019.25
2018-12-05T00:44:39.530Z,1019.23
2018-12-05T00:45:39.531Z,1019.25
2018-12-05T00:46:39.510Z,1019.24
2018-12-05T00:47:39.542Z,1019.23
2018-12-05T00:48:39.487Z,1019.23
2018-12-05T00:49:39.476Z,1019.24
2018-12-05T00:50:39.495Z,1019.29
2018-12-05T00:51:39.458Z,1019.26
2018-12-05T00:52:39.507Z,1019.29
2018-12-05T00:53:39.433Z,1019.30
2018-12-05T00:54:39.423Z,1019.31
2018-12-05T00:55:39.413Z,1019.40
2018-12-05T00:56:39.406Z,1019.35
2018-12-05T00:57:39.391Z,1019.36
2018-12-05T00:58:39.420Z,1019.39
2018-12-05T00:59:39.371Z,1019.40
2018-12-05T01:00:39.362Z,1019.40
2018-12-05T01:01:39.347Z,1019.46
2018-12-05T01:02:39.377Z,1019.44
2018-12-05T01:03:39.334Z,1019.43
2018-12-05T01:04:39.315Z,1019.46
2018-12-05T01:05:39.305Z,1019.43
2018-12-05T01:06:39.339Z,1019.44
2018-12-05T01:07:39.283Z,1019.44
2018-12-05T01:08:39.277Z,1019.50
2018-12-05T01:09:39.275Z,1019.49
2018-12-05T01:10:39.254Z,1019.46
2018-12-05T01:11:39.243Z,1019.46
2018-12-05T01:12:39.271Z,1019.42
2018-12-05T01:13:39.219Z,1019.42
2018-12-05T01:14:39.208Z,1019.42
2018-12-05T01:15:39.200Z,1019.39
2018-12-05T01:16:39.186Z,1019.38
2018-12-05T01:17:39.180Z,1019.39
2018-12-05T01:18:39.213Z,1019.41
2018-12-05T01:19:39.154Z,1019.44
2018-12-05T01:20:39.145Z,1019.44
2018-12-05T01:21:39.137Z,1019.46
2018-12-05T01:22:39.122Z,1019.44
2018-12-05T01:23:39.112Z,1019.44
2018-12-05T01:24:39.140Z,1019.39
2018-12-05T01:25:39.129Z,1019.42
2018-12-05T01:26:39.081Z,1019.48
2018-12-05T01:27:39.070Z,1019.41
2018-12-05T01:28:39.057Z,1019.39
2018-12-05T01:29:39.318Z,1019.39
2018-12-05T01:30:39.035Z,1019.41
2018-12-05T01:31:39.027Z,1019.39
2018-12-05T01:32:39.015Z,1019.38
2018-12-05T01:33:39.006Z,1019.37
2018-12-05T01:34:38.994Z,1019.35
2018-12-05T01:35:39.021Z,1019.33
2018-12-05T01:36:38.973Z,1019.37
2018-12-05T01:37:39.009Z,1019.35
2018-12-05T01:38:38.957Z,1019.34
2018-12-05T01:39:38.940Z,1019.22
2018-12-05T01:40:38.929Z,1019.24
2018-12-05T01:41:38.920Z,1019.30
2018-12-05T01:42:38.949Z,1019.23
2018-12-05T01:43:38.901Z,1019.24
2018-12-05T01:44:38.887Z,1019.15
2018-12-05T01:45:38.921Z,1019.12
2018-12-05T01:46:38.864Z,1019.15
2018-12-05T01:47:38.854Z,1019.13
2018-12-05T01:48:38.843Z,1019.18
2018-12-05T01:49:38.834Z,1019.20
2018-12-05T01:50:38.873Z,1019.21
2018-12-05T01:51:38.811Z,1019.23
2018-12-05T01:52:38.802Z,1019.19
2018-12-05T01:53:38.790Z,1019.18
2018-12-05T01:54:38.783Z,1019.25
2018-12-05T01:55:38.772Z,1019.20
2018-12-05T01:56:38.800Z,1019.18
2018-12-05T01:57:38.746Z,1019.20
2018-12-05T01:58:38.736Z,1019.15
2018-12-05T01:59:38.726Z,1019.09
2018-12-05T02:00:38.715Z,1019.08
2018-12-05T02:01:38.746Z,1019.12
2018-12-05T02:02:38.693Z,1019.14
2018-12-05T02:03:38.681Z,1019.12
2018-12-05T02:04:38.670Z,1019.16
2018-12-05T02:05:38.661Z,1019.16
2018-12-05T02:06:38.659Z,1019.16
2018-12-05T02:07:38.683Z,1019.10
2018-12-05T02:08:38.630Z,1019.14
2018-12-05T02:09:38.617Z,1019.14
2018-12-05T02:10:38.607Z,1019.18
2018-12-05T02:11:38.602Z,1019.15
2018-12-05T02:12:38.627Z,1019.14
2018-12-05T02:13:38.575Z,1019.15
2018-12-05T02:14:38.566Z,1019.16
2018-12-05T02:15:38.559Z,1019.21
2018-12-05T02:16:38.583Z,1019.23
2018-12-05T02:17:38.533Z,1019.19
2018-12-05T02:18:38.521Z,1019.18
2018-12-05T02:19:38.556Z,1019.20
2018-12-05T02:20:38.539Z,1019.22
2018-12-05T02:21:38.490Z,1019.20
2018-12-05T02:22:38.517Z,1019.18
2018-12-05T02:23:38.469Z,1019.12
2018-12-05T02:24:38.499Z,1019.14
2018-12-05T02:25:38.446Z,1019.12
2018-12-05T02:26:38.438Z,1019.10
2018-12-05T02:27:38.432Z,1019.07
2018-12-05T02:28:38.413Z,1019.11
2018-12-05T02:29:38.446Z,1019.10
2018-12-05T02:30:38.432Z,1019.06
2018-12-05T02:31:38.383Z,1019.05
2018-12-05T02:32:38.372Z,1019.02
2018-12-05T02:33:38.361Z,1019.02
2018-12-05T02:34:38.394Z,1019.05
2018-12-05T02:35:38.341Z,1019.02
2018-12-05T02:36:38.329Z,1019.03
2018-12-05T02:37:38.319Z,1019.02
2018-12-05T02:38:38.308Z,1019.04
2018-12-05T02:39:38.297Z,1019.06
2018-12-05T02:40:38.327Z,1019.01
2018-12-05T02:41:38.275Z,1019.01
2018-12-05T02:42:38.263Z,1018.96
2018-12-05T02:43:38.263Z,1018.95
2018-12-05T02:44:38.242Z,1018.92
2018-12-05T02:45:38.231Z,1018.98
2018-12-05T02:46:38.263Z,1019.00
2018-12-05T02:47:38.213Z,1019.01
2018-12-05T02:48:38.243Z,1018.96
2018-12-05T02:49:38.189Z,1018.97
2018-12-05T02:50:38.178Z,1018.97
2018-12-05T02:51:38.168Z,1018.94
2018-12-05T02:52:38.157Z,1018.97
2018-12-05T02:53:38.156Z,1018.93
2018-12-05T02:54:38.175Z,1018.94
2018-12-05T02:55:38.126Z,1018.87
2018-12-05T02:56:38.112Z,1018.93
2018-12-05T02:57:38.148Z,1018.91
2018-12-05T02:58:38.094Z,1018.87
2018-12-05T02:59:38.123Z,1018.87
2018-12-05T03:00:38.069Z,1018.85
2018-12-05T03:01:38.061Z,1018.87
2018-12-05T03:02:38.052Z,1018.79
2018-12-05T03:03:38.037Z,1018.78
2018-12-05T03:04:38.026Z,1018.78
2018-12-05T03:05:38.059Z,1018.76
2018-12-05T03:06:38.007Z,1018.73
2018-12-05T03:07:37.996Z,1018.69
2018-12-05T03:08:37.985Z,1018.69
2018-12-05T03:09:37.979Z,1018.66
2018-12-05T03:10:37.963Z,1018.64
2018-12-05T03:11:37.993Z,1018.66
2018-12-05T03:12:37.944Z,1018.59
2018-12-05T03:13:37.931Z,1018.61
2018-12-05T03:14:37.919Z,1018.59
2018-12-05T03:15:37.909Z,1018.55
2018-12-05T03:16:37.899Z,1018.46
2018-12-05T03:17:37.929Z,1018.49
2018-12-05T03:18:37.876Z,1018.50
2018-12-05T03:19:37.864Z,1018.53
2018-12-05T03:20:37.855Z,1018.50
2018-12-05T03:21:37.843Z,1018.53
2018-12-05T03:22:37.834Z,1018.42
2018-12-05T03:23:37.863Z,1018.53
2018-12-05T03:24:37.811Z,1018.48
2018-12-05T03:25:37.802Z,1018.51
2018-12-05T03:26:37.842Z,1018.51
2018-12-05T03:27:37.778Z,1018.49
2018-12-05T03:28:37.768Z,1018.50
2018-12-05T03:29:37.756Z,1018.51
2018-12-05T03:30:37.760Z,1018.48
2018-12-05T03:31:37.787Z,1018.57
2018-12-05T03:32:37.729Z,1018.59
2018-12-05T03:33:37.727Z,1018.61
2018-12-05T03:34:37.705Z,1018.70
2018-12-05T03:35:37.692Z,1018.71
2018-12-05T03:36:37.685Z,1018.72
2018-12-05T03:37:37.714Z,1018.72
2018-12-05T03:38:37.660Z,1018.71
2018-12-05T03:39:37.694Z,1018.68
2018-12-05T03:40:37.643Z,1018.70
2018-12-05T03:41:37.629Z,1018.72
2018-12-05T03:42:37.617Z,1018.69
2018-12-05T03:43:37.608Z,1018.73
2018-12-05T03:44:37.598Z,1018.73
2018-12-05T03:45:37.628Z,1018.72
2018-12-05T03:46:37.616Z,1018.73
2018-12-05T03:47:37.567Z,1018.76
2018-12-05T03:48:37.558Z,1018.77
2018-12-05T03:49:37.545Z,1018.75
2018-12-05T03:50:37.531Z,1018.76
2018-12-05T03:51:37.520Z,1018.80
2018-12-05T03:52:37.555Z,1018.78
2018-12-05T03:53:37.499Z,1018.83
2018-12-05T03:54:37.489Z,1018.84
2018-12-05T03:55:37.482Z,1018.84
2018-12-05T03:56:37.467Z,1018.82
2018-12-05T03:57:37.456Z,1018.75
2018-12-05T03:58:37.488Z,1018.74
2018-12-05T03:59:37.434Z,1018.72
2018-12-05T04:00:37.427Z,1018.69
2018-12-05T04:01:37.415Z,1018.68
2018-12-05T04:02:37.404Z,1018.71
2018-12-05T04:03:37.391Z,1018.68
2018-12-05T04:04:37.421Z,1018.65
2018-12-05T04:05:37.372Z,1018.63
2018-12-05T04:06:37.361Z,1018.66
2018-12-05T04:07:37.355Z,1018.64
2018-12-05T04:08:37.342Z,1018.61
2018-12-05T04:09:37.380Z,1018.62
2018-12-05T04:10:37.333Z,1018.63
2018-12-05T04:11:37.315Z,1018.66
2018-12-05T04:12:40.819Z,1018.65
2018-12-05T04:13:37.326Z,1018.65
2018-12-05T04:14:37.273Z,1018.65
2018-12-05T04:15:37.267Z,1018.66
2018-12-05T04:16:37.298Z,1018.66
2018-12-05T04:17:37.242Z,1018.69
2018-12-05T04:18:37.235Z,1018.67
2018-12-05T04:19:37.222Z,1018.67
2018-12-05T04:20:37.208Z,1018.66
2018-12-05T04:21:37.253Z,1018.72
2018-12-05T04:22:37.188Z,1018.64
2018-12-05T04:23:37.180Z,1018.62
2018-12-05T04:24:37.169Z,1018.63
2018-12-05T04:25:37.159Z,1018.60
2018-12-05T04:26:37.188Z,1018.65
2018-12-05T04:27:37.136Z,1018.66
2018-12-05T04:28:37.123Z,1018.65
2018-12-05T04:29:37.112Z,1018.67
2018-12-05T04:30:37.105Z,1018.70
2018-12-05T04:31:37.095Z,1018.70
2018-12-05T04:32:37.123Z,1018.71
2018-12-05T04:33:37.070Z,1018.75
2018-12-05T04:34:37.059Z,1018.75
2018-12-05T04:35:37.050Z,1018.77
2018-12-05T04:36:37.039Z,1018.81
2018-12-05T04:37:37.028Z,1018.77
2018-12-05T04:38:37.059Z,1018.80
2018-12-05T04:39:37.006Z,1018.80
2018-12-05T04:40:36.995Z,1018.82
2018-12-05T04:41:36.982Z,1018.81
2018-12-05T04:42:36.974Z,1018.85
2018-12-05T04:43:36.961Z,1018.85
2018-12-05T04:44:36.990Z,1018.93
2018-12-05T04:45:36.941Z,1018.88
2018-12-05T04:46:36.932Z,1018.85
2018-12-05T04:47:36.920Z,1018.90
2018-12-05T04:48:36.947Z,1018.90
2018-12-05T04:49:36.896Z,1018.89
2018-12-05T04:50:36.885Z,1018.90
2018-12-05T04:51:36.916Z,1018.92
2018-12-05T04:52:36.863Z,1018.89
2018-12-05T04:53:36.852Z,1018.91
2018-12-05T04:54:36.842Z,1018.89
2018-12-05T04:55:36.830Z,1018.90
2018-12-05T04:56:36.821Z,1018.84
2018-12-05T04:57:36.853Z,1018.84
2018-12-05T04:58:36.802Z,1018.86
2018-12-05T04:59:36.826Z,1018.85
2018-12-05T05:00:36.778Z,1018.85
2018-12-05T05:01:36.765Z,1018.84
2018-12-05T05:02:36.759Z,1018.81
2018-12-05T05:03:36.747Z,1018.83
2018-12-05T05:04:36.776Z,1018.82
2018-12-05T05:05:36.724Z,1018.74
2018-12-05T05:06:41.588Z,1018.72
2018-12-05T05:07:37.700Z,1018.70
2018-12-05T05:08:36.691Z,1018.71
2018-12-05T05:09:36.678Z,1018.71
2018-12-05T05:10:36.710Z,1018.76
2018-12-05T05:11:36.658Z,1018.78
2018-12-05T05:12:36.689Z,1018.78
2018-12-05T05:13:36.637Z,1018.82
2018-12-05T05:14:36.629Z,1018.83
2018-12-05T05:15:36.616Z,1018.80
2018-12-05T05:16:36.604Z,1018.83
2018-12-05T05:17:36.597Z,1018.80
2018-12-05T05:18:36.621Z,1018.87
2018-12-05T05:19:36.571Z,1018.83
2018-12-05T05:20:36.564Z,1018.79
2018-12-05T05:21:36.577Z,1018.81
2018-12-05T05:22:36.542Z,1018.79
2018-12-05T05:23:36.532Z,1018.69
2018-12-05T05:24:36.562Z,1018.71
2018-12-05T05:25:36.506Z,1018.71
2018-12-05T05:26:36.494Z,1018.69
2018-12-05T05:27:36.485Z,1018.65
2018-12-05T05:28:36.473Z,1018.63
2018-12-05T05:29:36.507Z,1018.69
2018-12-05T05:30:36.473Z,1018.66
2018-12-05T05:31:36.479Z,1018.67
2018-12-05T05:32:36.430Z,1018.67
2018-12-05T05:33:36.419Z,1018.65
2018-12-05T05:34:36.408Z,1018.67
2018-12-05T05:35:36.399Z,1018.57
2018-12-05T05:36:36.428Z,1018.54
2018-12-05T05:37:36.377Z,1018.51
2018-12-05T05:38:36.372Z,1018.52
2018-12-05T05:39:36.354Z,1018.48
2018-12-05T05:40:36.344Z,1018.48
2018-12-05T05:41:36.332Z,1018.48
2018-12-05T05:42:36.373Z,1018.48
2018-12-05T05:43:36.316Z,1018.43
2018-12-05T05:44:36.301Z,1018.44
2018-12-05T05:45:36.291Z,1018.47
2018-12-05T05:46:36.278Z,1018.44
2018-12-05T05:47:36.267Z,1018.42
2018-12-05T05:48:36.301Z,1018.36
2018-12-05T05:49:36.247Z,1018.35
2018-12-05T05:50:36.236Z,1018.28
2018-12-05T05:51:36.225Z,1018.26
2018-12-05T05:52:36.214Z,1018.31
2018-12-05T05:53:36.203Z,1018.31
2018-12-05T05:54:36.232Z,1018.29
2018-12-05T05:55:36.185Z,1018.32
2018-12-05T05:56:36.187Z,1018.35
2018-12-05T05:57:36.160Z,1018.36
2018-12-05T05:58:36.149Z,1018.36
2018-12-05T05:59:36.182Z,1018.36
2018-12-05T06:00:36.127Z,1018.29
2018-12-05T06:01:36.118Z,1018.35
2018-12-05T06:02:36.109Z,1018.31
2018-12-05T06:03:36.113Z,1018.24
2018-12-05T06:04:36.126Z,1018.29
2018-12-05T06:05:36.082Z,1018.33
2018-12-05T06:06:36.065Z,1018.33
2018-12-05T06:07:36.057Z,1018.32
2018-12-05T06:08:36.049Z,1018.31
2018-12-05T06:09:36.072Z,1018.34
2018-12-05T06:10:36.065Z,1018.36
2018-12-05T06:11:36.010Z,1018.36
2018-12-05T06:12:36.435Z,1018.34
2018-12-05T06:13:35.989Z,1018.35
2018-12-05T06:14:35.987Z,1018.32
2018-12-05T06:15:35.973Z,1018.35
2018-12-05T06:16:35.993Z,1018.44
2018-12-05T06:17:35.954Z,1018.42
2018-12-05T06:18:35.979Z,1018.39
2018-12-05T06:19:35.923Z,1018.41
2018-12-05T06:20:35.914Z,1018.40
2018-12-05T06:21:35.953Z,1018.42
2018-12-05T06:22:35.978Z,1018.42
2018-12-05T06:23:35.923Z,1018.43
2018-12-05T06:24:35.876Z,1018.40
2018-12-05T06:25:35.861Z,1018.42
2018-12-05T06:26:35.852Z,1018.45
2018-12-05T06:27:35.849Z,1018.43
2018-12-05T06:28:35.828Z,1018.38
2018-12-05T06:29:35.863Z,1018.40
2018-12-05T06:30:35.807Z,1018.35
2018-12-05T06:31:35.800Z,1018.41
2018-12-05T06:32:35.810Z,1018.35
2018-12-05T06:33:35.779Z,1018.33
2018-12-05T06:34:35.762Z,1018.28
2018-12-05T06:35:35.803Z,1018.25
2018-12-05T06:36:35.750Z,1018.31
2018-12-05T06:37:35.774Z,1018.30
2018-12-05T06:38:35.726Z,1018.31
2018-12-05T06:39:35.724Z,1018.33
2018-12-05T06:40:35.709Z,1018.34
2018-12-05T06:41:35.695Z,1018.32
2018-12-05T06:42:35.681Z,1018.35
2018-12-05T06:43:35.710Z,1018.29
2018-12-05T06:44:35.654Z,1018.32
2018-12-05T06:45:35.649Z,1018.29
2018-12-05T06:46:35.642Z,1018.26
2018-12-05T06:47:35.636Z,1018.30
2018-12-05T06:48:35.651Z,1018.26
2018-12-05T06:49:35.602Z,1018.30
2018-12-05T06:50:35.598Z,1018.24
2018-12-05T06:51:35.585Z,1018.32
2018-12-05T06:52:35.570Z,1018.25
2018-12-05T06:53:35.687Z,1018.33
2018-12-05T06:54:35.626Z,1018.36
2018-12-05T06:55:39.064Z,1018.34
2018-12-05T06:56:35.527Z,1018.38
2018-12-05T06:57:35.523Z,1018.40
2018-12-05T06:58:35.565Z,1018.46
2018-12-05T06:59:35.494Z,1018.47
2018-12-05T07:00:35.489Z,1018.41
2018-12-05T07:01:35.638Z,1018.40
2018-12-05T07:02:35.461Z,1018.41
2018-12-05T07:03:35.452Z,1018.33
2018-12-05T07:04:35.442Z,1018.33
2018-12-05T07:05:35.441Z,1018.33
2018-12-05T07:06:35.477Z,1018.34
2018-12-05T07:07:35.502Z,1018.40
2018-12-05T07:08:35.407Z,1018.49
2018-12-05T07:09:35.399Z,1018.47
2018-12-05T07:10:35.377Z,1018.47
2018-12-05T07:11:35.369Z,1018.47
2018-12-05T07:12:35.354Z,1018.45
2018-12-05T07:13:35.520Z,1018.44
2018-12-05T07:14:35.333Z,1018.44
2018-12-05T07:15:35.324Z,1018.37
2018-12-05T07:16:35.317Z,1018.41
2018-12-05T07:17:35.301Z,1018.43
2018-12-05T07:18:35.297Z,1018.39
2018-12-05T07:19:35.320Z,1018.43
2018-12-05T07:20:35.277Z,1018.37
2018-12-05T07:21:35.317Z,1018.43
2018-12-05T07:22:35.247Z,1018.42
2018-12-05T07:23:35.240Z,1018.45
2018-12-05T07:24:35.226Z,1018.36
2018-12-05T07:25:35.221Z,1018.41
2018-12-05T07:26:35.246Z,1018.44
2018-12-05T07:27:35.199Z,1018.44
2018-12-05T07:28:35.202Z,1018.46
2018-12-05T07:29:35.171Z,1018.45
2018-12-05T07:30:35.164Z,1018.52
2018-12-05T07:31:35.157Z,1018.57
2018-12-05T07:32:35.191Z,1018.57
2018-12-05T07:33:35.130Z,1018.63
2018-12-05T07:34:35.121Z,1018.64
2018-12-05T07:35:35.165Z,1018.60
2018-12-05T07:36:35.116Z,1018.55
2018-12-05T07:37:35.125Z,1018.51
2018-12-05T07:38:35.074Z,1018.48
2018-12-05T07:39:35.074Z,1018.46
2018-12-05T07:40:35.056Z,1018.48
2018-12-05T07:41:35.047Z,1018.47
2018-12-05T07:42:35.033Z,1018.45
2018-12-05T07:43:35.067Z,1018.50
2018-12-05T07:44:35.079Z,1018.46
2018-12-05T07:45:34.997Z,1018.47
2018-12-05T07:46:34.989Z,1018.48
2018-12-05T07:47:35.018Z,1018.45
2018-12-05T07:48:34.967Z,1018.49
2018-12-05T07:49:34.978Z,1018.55
2018-12-05T07:50:34.944Z,1018.59
2018-12-05T07:51:34.955Z,1018.59
2018-12-05T07:52:34.960Z,1018.59
2018-12-05T07:53:34.919Z,1018.58
2018-12-05T07:54:34.902Z,1018.57
2018-12-05T07:55:34.927Z,1018.57
2018-12-05T07:56:34.884Z,1018.57
2018-12-05T07:57:34.875Z,1018.54
2018-12-05T07:58:34.874Z,1018.54
2018-12-05T07:59:34.868Z,1018.54
2018-12-05T08:00:34.843Z,1018.49
2018-12-05T08:01:34.901Z,1018.50
2018-12-05T08:02:34.822Z,1018.43
2018-12-05T08:03:34.821Z,1018.44
2018-12-05T08:04:34.807Z,1018.47
2018-12-05T08:05:34.787Z,1018.40
2018-12-05T08:06:34.787Z,1018.37
2018-12-05T08:07:34.835Z,1018.37
2018-12-05T08:08:34.753Z,1018.32
2018-12-05T08:09:34.742Z,1018.30
2018-12-05T08:10:34.738Z,1018.31
2018-12-05T08:11:34.721Z,1018.30
2018-12-05T08:12:34.714Z,1018.33
2018-12-05T08:13:34.746Z,1018.31
2018-12-05T08:14:34.736Z,1018.35
2018-12-05T08:15:34.678Z,1018.35
2018-12-05T08:16:34.848Z,1018.36
2018-12-05T08:17:34.653Z,1018.35
2018-12-05T08:18:34.656Z,1018.32
2018-12-05T08:19:34.642Z,1018.35
2018-12-05T08:20:34.664Z,1018.31
2018-12-05T08:21:34.610Z,1018.36
2018-12-05T08:22:34.614Z,1018.36
2018-12-05T08:23:34.590Z,1018.36
2018-12-05T08:24:34.581Z,1018.27
2018-12-05T08:25:34.614Z,1018.32
2018-12-05T08:26:34.613Z,1018.33
2018-12-05T08:27:34.601Z,1018.30
2018-12-05T08:28:34.574Z,1018.26
2018-12-05T08:29:34.526Z,1018.26
2018-12-05T08:30:34.527Z,1018.21
2018-12-05T08:31:34.500Z,1018.15
2018-12-05T08:32:34.534Z,1018.15
2018-12-05T08:33:34.835Z,1018.12
2018-12-05T08:34:34.482Z,1018.14
2018-12-05T08:35:34.462Z,1018.08
2018-12-05T08:36:34.448Z,1018.08
2018-12-05T08:37:34.435Z,1018.05
2018-12-05T08:38:34.439Z,1018.03
2018-12-05T08:39:34.710Z,1018.02
2018-12-05T08:40:34.419Z,1017.99
2018-12-05T08:41:34.465Z,1017.99
2018-12-05T08:42:34.400Z,1017.98
2018-12-05T08:43:34.376Z,1017.97
2018-12-05T08:44:34.364Z,1017.93
2018-12-05T08:45:34.435Z,1018.00
2018-12-05T08:46:34.351Z,1017.95
2018-12-05T08:47:34.331Z,1017.95
2018-12-05T08:48:34.322Z,1017.95
2018-12-05T08:49:34.315Z,1017.92
2018-12-05T08:50:34.360Z,1017.86
2018-12-05T08:51:34.296Z,1017.92
2018-12-05T08:52:34.291Z,1017.84
2018-12-05T08:53:34.283Z,1017.84
2018-12-05T08:54:34.301Z,1017.90
2018-12-05T08:55:34.268Z,1017.80
2018-12-05T08:56:34.365Z,1017.82
2018-12-05T08:57:34.263Z,1017.78
2018-12-05T08:58:34.253Z,1017.75
2018-12-05T08:59:34.224Z,1017.73
2018-12-05T09:00:34.298Z,1017.70
2018-12-05T09:01:34.311Z,1017.77
2018-12-05T09:02:34.227Z,1017.73
2018-12-05T09:03:34.194Z,1017.74
2018-12-05T09:04:34.193Z,1017.74
2018-12-05T09:05:34.294Z,1017.80
2018-12-05T09:06:34.141Z,1017.77
2018-12-05T09:07:34.173Z,1017.80
2018-12-05T09:08:34.137Z,1017.82
2018-12-05T09:09:34.331Z,1017.87
2018-12-05T09:10:34.108Z,1017.90
2018-12-05T09:11:34.108Z,1017.94
2018-12-05T09:12:34.083Z,1017.89
2018-12-05T09:13:34.069Z,1017.89
2018-12-05T09:14:34.067Z,1017.88
2018-12-05T09:15:34.099Z,1017.86
2018-12-05T09:16:34.045Z,1017.86
2018-12-05T09:17:34.009Z,1017.82
2018-12-05T09:18:33.998Z,1017.83
2018-12-05T09:19:33.990Z,1017.83
2018-12-05T09:20:33.979Z,1017.87
2018-12-05T09:21:34.015Z,1017.90
2018-12-05T09:22:41.014Z,1017.90
2018-12-05T09:23:34.939Z,1017.91
2018-12-05T09:24:33.942Z,1017.88
2018-12-05T09:25:33.934Z,1017.88
2018-12-05T09:26:33.952Z,1017.89
2018-12-05T09:27:34.027Z,1017.86
2018-12-05T09:28:33.924Z,1017.91
2018-12-05T09:29:33.911Z,1017.87
2018-12-05T09:30:33.884Z,1017.79
2018-12-05T09:31:33.884Z,1017.76
2018-12-05T09:32:33.852Z,1017.75
2018-12-05T09:33:33.874Z,1017.74
2018-12-05T09:34:33.827Z,1017.69
2018-12-05T09:35:33.811Z,1017.67
2018-12-05T09:36:33.803Z,1017.64
2018-12-05T09:37:33.845Z,1017.65
2018-12-05T09:38:33.782Z,1017.62
2018-12-05T09:39:33.795Z,1017.65
2018-12-05T09:40:33.764Z,1017.73
2018-12-05T09:41:33.749Z,1017.72
2018-12-05T09:42:33.777Z,1017.68
2018-12-05T09:43:33.796Z,1017.56
2018-12-05T09:44:33.716Z,1017.62
2018-12-05T09:45:33.706Z,1017.62
2018-12-05T09:46:33.696Z,1017.59
2018-12-05T09:47:33.678Z,1017.48
2018-12-05T09:48:33.800Z,1017.51
2018-12-05T09:49:33.657Z,1017.47
2018-12-05T09:50:33.646Z,1017.38
2018-12-05T09:51:33.641Z,1017.37
2018-12-05T09:52:33.628Z,1017.33
2018-12-05T09:53:33.665Z,1017.27
2018-12-05T09:54:33.605Z,1017.27
2018-12-05T09:55:33.590Z,1017.36
2018-12-05T09:56:33.579Z,1017.24
2018-12-05T09:57:33.568Z,1017.30
2018-12-05T09:58:33.615Z,1017.28
2018-12-05T09:59:33.547Z,1017.22
2018-12-05T10:00:34.606Z,1017.19
2018-12-05T10:01:33.525Z,1017.23
2018-12-05T10:02:33.518Z,1017.16
2018-12-05T10:03:36.124Z,1017.21
2018-12-05T10:04:33.539Z,1017.24
2018-12-05T10:05:33.497Z,1017.15
2018-12-05T10:06:33.473Z,1017.17
2018-12-05T10:07:33.458Z,1017.15
2018-12-05T10:08:33.454Z,1017.15
2018-12-05T10:09:33.475Z,1017.16
2018-12-05T10:10:33.438Z,1017.15
2018-12-05T10:11:33.416Z,1017.15
2018-12-05T10:12:33.428Z,1017.17
2018-12-05T10:13:33.397Z,1017.19
2018-12-05T10:14:33.428Z,1017.15
2018-12-05T10:15:33.369Z,1017.15
2018-12-05T10:16:33.359Z,1017.11
2018-12-05T10:17:33.354Z,1017.08
2018-12-05T10:18:33.356Z,1017.09
2018-12-05T10:19:33.343Z,1017.04
2018-12-05T10:20:33.361Z,1017.07
2018-12-05T10:21:33.305Z,1017.05
2018-12-05T10:22:33.347Z,1017.04
2018-12-05T10:23:33.323Z,1017.02
2018-12-05T10:24:33.277Z,1017.04
2018-12-05T10:25:33.260Z,1017.06
2018-12-05T10:26:33.274Z,1017.07
2018-12-05T10:27:33.238Z,1017.04
2018-12-05T10:28:33.265Z,1017.00
2018-12-05T10:29:33.239Z,1017.05
2018-12-05T10:30:33.220Z,1017.04
2018-12-05T10:31:33.204Z,1017.03
2018-12-05T10:32:33.184Z,1017.03
2018-12-05T10:33:33.215Z,1017.01
2018-12-05T10:34:33.284Z,1017.03
2018-12-05T10:35:33.153Z,1016.98
2018-12-05T10:36:33.158Z,1016.98
2018-12-05T10:37:33.134Z,1016.98
2018-12-05T10:38:33.277Z,1017.02
2018-12-05T10:39:33.107Z,1017.03
2018-12-05T10:40:33.099Z,1017.04
2018-12-05T10:41:33.086Z,1017.02
2018-12-05T10:42:33.085Z,1017.05
2018-12-05T10:43:34.541Z,1017.05
2018-12-05T10:44:33.095Z,1017.06
2018-12-05T10:45:33.060Z,1016.97
2018-12-05T10:46:33.072Z,1016.98
2018-12-05T10:47:33.067Z,1017.02
2018-12-05T10:48:33.014Z,1017.02
2018-12-05T10:49:33.075Z,1016.93
2018-12-05T10:50:32.988Z,1016.97
2018-12-05T10:51:33.054Z,1016.96
2018-12-05T10:52:33.094Z,1016.96
2018-12-05T10:53:32.956Z,1016.95
2018-12-05T10:54:32.946Z,1016.90
2018-12-05T10:55:32.931Z,1016.87
2018-12-05T10:56:32.920Z,1016.83
2018-12-05T10:57:32.910Z,1016.78
2018-12-05T10:58:32.946Z,1016.68
2018-12-05T10:59:32.887Z,1016.66
2018-12-05T11:00:32.878Z,1016.63
2018-12-05T11:01:32.918Z,1016.60
2018-12-05T11:02:32.862Z,1016.52
2018-12-05T11:03:32.848Z,1016.48
2018-12-05T11:04:32.832Z,1016.50
2018-12-05T11:05:32.823Z,1016.50
2018-12-05T11:06:32.813Z,1016.50
2018-12-05T11:07:32.856Z,1016.44
2018-12-05T11:08:32.802Z,1016.46
2018-12-05T11:09:32.780Z,1016.41
2018-12-05T11:10:32.820Z,1016.44
2018-12-05T11:11:32.763Z,1016.37
2018-12-05T11:12:32.769Z,1016.42
2018-12-05T11:13:32.784Z,1016.38
2018-12-05T11:14:32.721Z,1016.36
2018-12-05T11:15:32.712Z,1016.37
2018-12-05T11:16:32.954Z,1016.26
2018-12-05T11:17:32.710Z,1016.32
2018-12-05T11:18:32.931Z,1016.32
2018-12-05T11:19:32.692Z,1016.30
2018-12-05T11:20:32.785Z,1016.24
2018-12-05T11:21:32.681Z,1016.26
2018-12-05T11:22:32.644Z,1016.27
2018-12-05T11:23:32.669Z,1016.27
2018-12-05T11:24:32.616Z,1016.22
2018-12-05T11:25:32.610Z,1016.14
2018-12-05T11:26:32.630Z,1016.16
2018-12-05T11:27:32.590Z,1016.17
2018-12-05T11:28:32.576Z,1016.15
2018-12-05T11:29:32.560Z,1016.14
2018-12-05T11:30:32.556Z,1016.11
2018-12-05T11:31:32.589Z,1016.08
2018-12-05T11:32:32.576Z,1016.07
2018-12-05T11:33:32.520Z,1016.05
2018-12-05T11:34:32.530Z,1015.95
2018-12-05T11:35:32.492Z,1015.98
2018-12-05T11:36:32.479Z,1015.99
2018-12-05T11:37:32.512Z,1015.93
2018-12-05T11:38:32.463Z,1015.91
2018-12-05T11:39:32.454Z,1015.78
2018-12-05T11:40:32.480Z,1015.83
2018-12-05T11:41:32.751Z,1015.72
2018-12-05T11:42:32.415Z,1015.77
2018-12-05T11:43:32.403Z,1015.73
2018-12-05T11:44:32.394Z,1015.78
2018-12-05T11:45:32.426Z,1015.73
2018-12-05T11:46:32.383Z,1015.75
2018-12-05T11:47:32.405Z,1015.67
2018-12-05T11:48:32.353Z,1015.70
2018-12-05T11:49:32.340Z,1015.68
2018-12-05T11:50:32.330Z,1015.71
2018-12-05T11:51:32.319Z,1015.70
2018-12-05T11:52:32.311Z,1015.68
2018-12-05T11:53:32.333Z,1015.69
2018-12-05T11:54:32.280Z,1015.68
2018-12-05T11:55:32.277Z,1015.60
2018-12-05T11:56:32.303Z,1015.59
2018-12-05T11:57:32.248Z,1015.57
2018-12-05T11:58:32.269Z,1015.55
2018-12-05T11:59:32.367Z,1015.59
2018-12-05T12:00:32.218Z,1015.56
2018-12-05T12:01:32.206Z,1015.54
2018-12-05T12:02:32.193Z,1015.55
2018-12-05T12:03:32.222Z,1015.56
2018-12-05T12:04:32.175Z,1015.57
2018-12-05T12:05:32.194Z,1015.53